Aérodrome :
LOGIN :

S'inscrire | Disclaimer

   EN    FR    IT 

 










Légende :    VFR   VFR Marginal   IFR   IFR Intensif   IFR Très Intensif
Visi : 
Plafond : 
>= 8 km
>= 3000ft
5 à 8 km
1000 à 3000 ft
1500m à 5 km
500 à 1000 ft
800 à 1500m
200 à 500 ft
< 800m
< 200 ft
Symboles :   Orages  Brouillard  Fortes neiges  Fortes précipitations  Vent > 20 kt
SIGMETs :   Divers  Orages  Givrage  Turbulence  Onde Orograph.  Cendres Volcan.






- Altitude de l'aérodrome : 2031 ft


LEGT - Madrid Getafe

DERNIER METAR :
  • 020600Z 23016KT 9999 BKN010 08/06 Q1009

METARs EXPIRÉS :
  • 020530Z AUTO 23015KT 9999 SCT010/// BKN012/// BKN015/// 08/06 Q1009
  • 020500Z AUTO 23016KT 9999 FEW010/// SCT012/// BKN019/// 08/06 Q1010
  • 020430Z AUTO 23014KT 200V280 9999 FEW009/// BKN010/// BKN018/// 08/06 Q1010
  • 012100Z AUTO 26011KT CAVOK 09/04 Q1015
  • 020400Z AUTO 23014KT 9999 FEW007/// SCT009/// BKN010/// 08/06 Q1010
  • 020330Z AUTO 23016KT 9999 BKN009/// BKN010/// BKN016/// 08/06 Q1011
  • 020300Z AUTO 23012KT 9999 BKN010/// BKN016/// BKN021/// 08/06 Q1011
  • 020230Z AUTO 23010KT 9999 FEW011/// SCT022/// BKN027/// 08/06 Q1012
  • 020200Z AUTO 23016KT 9999 FEW025/// SCT030/// 07/05 Q1012
  • 020130Z AUTO 23010KT 200V260 9999 BKN024/// 07/05 Q1012

TAF TAF LEGT
Valide du 02 à 06h jusqu'au 03 à 06h UTC


020500Z 0206/0306 23010KT 9999 SCT040 TX10/0215Z TN02/0306Z
TEMPO 0208/0222 23026G36KT
BECMG 0222/0224 VRB05KT
PROB40
TEMPO 0206/0212 BKN006
PROB30
TEMPO 0206/0215 4000 RA BKN012
TEMPO 0215/0221 3000 RA SHRA BKN014 SCT040TCU
PROB30
TEMPO 0216/0220 2000 TSRA FEW040CB



MET'MAP, la Météo Aéronautique d'un coup d'oeil ! - Copyright ORBIFLY Décembre 2007 - Disclaimer

ORBIFLY MET'MAP TEAM :

Programmation & Développement : Alexandra Zaïnal
Sur une idée originale de : Baudouin d'Aumeries
Soutien technique & logistique : Manuel Goepfert
Assistance : Marc-Olivier Méhu




SOURCES & CREDITS :

   NOAA